sensor_id;sensor_type;location;lat;lon;timestamp;P1;durP1;ratioP1;P2;durP2;ratioP2
18320;SDS011;54904;54.350;18.664;2023-02-28T00:00:23;61.07;;;22.30;;
18320;SDS011;54904;54.350;18.664;2023-02-28T00:02:51;63.97;;;22.63;;
18320;SDS011;54904;54.350;18.664;2023-02-28T00:05:22;64.67;;;23.97;;
18320;SDS011;54904;54.350;18.664;2023-02-28T00:07:50;67.47;;;24.40;;
18320;SDS011;54904;54.350;18.664;2023-02-28T00:10:18;58.77;;;21.50;;
18320;SDS011;54904;54.350;18.664;2023-02-28T00:12:49;56.23;;;21.63;;
18320;SDS011;54904;54.350;18.664;2023-02-28T00:15:18;59.07;;;22.07;;
18320;SDS011;54904;54.350;18.664;2023-02-28T00:17:45;52.70;;;20.20;;
18320;SDS011;54904;54.350;18.664;2023-02-28T00:20:12;57.77;;;21.97;;
18320;SDS011;54904;54.350;18.664;2023-02-28T00:22:41;61.80;;;23.20;;
18320;SDS011;54904;54.350;18.664;2023-02-28T00:25:11;64.80;;;24.63;;
18320;SDS011;54904;54.350;18.664;2023-02-28T00:27:39;58.23;;;23.70;;
18320;SDS011;54904;54.350;18.664;2023-02-28T00:30:10;55.30;;;20.27;;
18320;SDS011;54904;54.350;18.664;2023-02-28T00:32:39;44.63;;;19.13;;
18320;SDS011;54904;54.350;18.664;2023-02-28T00:35:07;39.83;;;16.70;;
18320;SDS011;54904;54.350;18.664;2023-02-28T00:37:35;39.43;;;16.03;;
18320;SDS011;54904;54.350;18.664;2023-02-28T00:40:05;38.40;;;15.80;;
18320;SDS011;54904;54.350;18.664;2023-02-28T00:42:33;39.03;;;16.43;;
18320;SDS011;54904;54.350;18.664;2023-02-28T00:45:00;40.20;;;16.60;;
18320;SDS011;54904;54.350;18.664;2023-02-28T00:47:31;38.57;;;15.70;;
18320;SDS011;54904;54.350;18.664;2023-02-28T00:50:02;37.30;;;15.63;;
18320;SDS011;54904;54.350;18.664;2023-02-28T00:52:29;38.40;;;14.73;;
18320;SDS011;54904;54.350;18.664;2023-02-28T00:54:57;39.37;;;16.90;;
18320;SDS011;54904;54.350;18.664;2023-02-28T00:57:24;52.77;;;20.93;;
18320;SDS011;54904;54.350;18.664;2023-02-28T00:59:52;42.57;;;17.93;;
18320;SDS011;54904;54.350;18.664;2023-02-28T01:02:20;45.10;;;18.10;;
18320;SDS011;54904;54.350;18.664;2023-02-28T01:04:49;36.23;;;15.07;;
18320;SDS011;54904;54.350;18.664;2023-02-28T01:07:16;36.87;;;14.30;;
18320;SDS011;54904;54.350;18.664;2023-02-28T01:09:45;31.53;;;12.67;;
18320;SDS011;54904;54.350;18.664;2023-02-28T01:12:12;30.70;;;13.23;;
18320;SDS011;54904;54.350;18.664;2023-02-28T01:14:39;31.03;;;13.80;;
18320;SDS011;54904;54.350;18.664;2023-02-28T01:17:07;36.13;;;14.73;;
18320;SDS011;54904;54.350;18.664;2023-02-28T01:19:34;31.43;;;12.70;;
18320;SDS011;54904;54.350;18.664;2023-02-28T01:22:04;26.87;;;12.40;;
18320;SDS011;54904;54.350;18.664;2023-02-28T01:24:31;36.63;;;14.70;;
18320;SDS011;54904;54.350;18.664;2023-02-28T01:26:59;32.60;;;13.67;;
18320;SDS011;54904;54.350;18.664;2023-02-28T01:29:26;38.30;;;15.20;;
18320;SDS011;54904;54.350;18.664;2023-02-28T01:31:53;38.63;;;14.83;;
18320;SDS011;54904;54.350;18.664;2023-02-28T01:34:20;34.90;;;14.67;;
18320;SDS011;54904;54.350;18.664;2023-02-28T01:36:48;47.33;;;18.03;;
18320;SDS011;54904;54.350;18.664;2023-02-28T01:39:16;39.83;;;15.53;;
18320;SDS011;54904;54.350;18.664;2023-02-28T01:41:43;48.03;;;18.63;;
18320;SDS011;54904;54.350;18.664;2023-02-28T01:47:16;47.97;;;18.63;;
18320;SDS011;54904;54.350;18.664;2023-02-28T01:49:43;48.43;;;18.33;;
18320;SDS011;54904;54.350;18.664;2023-02-28T01:52:11;44.73;;;17.13;;
18320;SDS011;54904;54.350;18.664;2023-02-28T01:54:44;43.97;;;16.83;;
18320;SDS011;54904;54.350;18.664;2023-02-28T01:57:17;46.27;;;16.60;;
18320;SDS011;54904;54.350;18.664;2023-02-28T01:59:47;39.50;;;14.93;;
18320;SDS011;54904;54.350;18.664;2023-02-28T02:02:19;43.13;;;17.10;;
18320;SDS011;54904;54.350;18.664;2023-02-28T02:04:50;54.10;;;20.30;;
18320;SDS011;54904;54.350;18.664;2023-02-28T02:07:21;44.53;;;17.27;;
18320;SDS011;54904;54.350;18.664;2023-02-28T02:09:56;41.07;;;16.40;;
18320;SDS011;54904;54.350;18.664;2023-02-28T02:12:28;38.77;;;15.60;;
18320;SDS011;54904;54.350;18.664;2023-02-28T02:15:11;36.07;;;14.53;;
18320;SDS011;54904;54.350;18.664;2023-02-28T02:17:44;27.23;;;11.80;;
18320;SDS011;54904;54.350;18.664;2023-02-28T02:20:24;27.73;;;11.97;;
18320;SDS011;54904;54.350;18.664;2023-02-28T02:23:27;27.20;;;11.17;;
18320;SDS011;54904;54.350;18.664;2023-02-28T02:26:12;27.30;;;10.63;;
18320;SDS011;54904;54.350;18.664;2023-02-28T02:29:07;28.67;;;11.03;;
18320;SDS011;54904;54.350;18.664;2023-02-28T02:35:13;25.83;;;10.63;;
18320;SDS011;54904;54.350;18.664;2023-02-28T02:37:46;26.23;;;10.47;;
18320;SDS011;54904;54.350;18.664;2023-02-28T02:40:17;25.60;;;10.80;;
18320;SDS011;54904;54.350;18.664;2023-02-28T02:42:50;22.40;;;9.77;;
18320;SDS011;54904;54.350;18.664;2023-02-28T02:45:23;18.27;;;8.47;;
18320;SDS011;54904;54.350;18.664;2023-02-28T02:47:54;21.10;;;8.80;;
18320;SDS011;54904;54.350;18.664;2023-02-28T02:50:29;19.97;;;9.20;;
18320;SDS011;54904;54.350;18.664;2023-02-28T02:53:01;21.27;;;8.77;;
18320;SDS011;54904;54.350;18.664;2023-02-28T02:55:31;16.57;;;7.57;;
18320;SDS011;54904;54.350;18.664;2023-02-28T02:58:02;19.20;;;8.10;;
18320;SDS011;54904;54.350;18.664;2023-02-28T03:00:35;20.23;;;8.40;;
18320;SDS011;54904;54.350;18.664;2023-02-28T03:03:09;21.27;;;9.23;;
18320;SDS011;54904;54.350;18.664;2023-02-28T03:05:41;23.70;;;9.77;;
18320;SDS011;54904;54.350;18.664;2023-02-28T03:08:12;17.27;;;8.20;;
18320;SDS011;54904;54.350;18.664;2023-02-28T03:10:41;19.90;;;9.33;;
18320;SDS011;54904;54.350;18.664;2023-02-28T03:13:14;20.13;;;8.73;;
18320;SDS011;54904;54.350;18.664;2023-02-28T03:16:03;22.97;;;9.97;;
18320;SDS011;54904;54.350;18.664;2023-02-28T03:18:52;25.90;;;11.17;;
18320;SDS011;54904;54.350;18.664;2023-02-28T03:21:29;18.60;;;8.60;;
18320;SDS011;54904;54.350;18.664;2023-02-28T03:24:03;18.57;;;8.43;;
18320;SDS011;54904;54.350;18.664;2023-02-28T03:26:36;17.47;;;7.53;;
18320;SDS011;54904;54.350;18.664;2023-02-28T03:29:09;18.77;;;7.90;;
18320;SDS011;54904;54.350;18.664;2023-02-28T03:31:43;19.27;;;7.03;;
18320;SDS011;54904;54.350;18.664;2023-02-28T03:34:17;12.93;;;6.43;;
18320;SDS011;54904;54.350;18.664;2023-02-28T03:36:53;10.67;;;5.40;;
18320;SDS011;54904;54.350;18.664;2023-02-28T03:39:25;13.13;;;5.97;;
18320;SDS011;54904;54.350;18.664;2023-02-28T03:41:58;16.13;;;6.73;;
18320;SDS011;54904;54.350;18.664;2023-02-28T03:44:29;13.17;;;7.00;;
18320;SDS011;54904;54.350;18.664;2023-02-28T03:47:02;13.17;;;6.00;;
18320;SDS011;54904;54.350;18.664;2023-02-28T03:49:34;11.67;;;6.00;;
18320;SDS011;54904;54.350;18.664;2023-02-28T03:52:06;11.03;;;5.03;;
18320;SDS011;54904;54.350;18.664;2023-02-28T03:54:35;16.57;;;6.37;;
18320;SDS011;54904;54.350;18.664;2023-02-28T03:57:10;18.00;;;7.40;;
18320;SDS011;54904;54.350;18.664;2023-02-28T03:59:43;12.90;;;6.40;;
18320;SDS011;54904;54.350;18.664;2023-02-28T04:02:14;16.30;;;6.83;;
18320;SDS011;54904;54.350;18.664;2023-02-28T04:04:41;16.63;;;6.80;;
18320;SDS011;54904;54.350;18.664;2023-02-28T04:07:14;12.97;;;6.27;;
18320;SDS011;54904;54.350;18.664;2023-02-28T04:09:42;13.60;;;6.87;;
18320;SDS011;54904;54.350;18.664;2023-02-28T04:12:09;14.57;;;6.27;;
18320;SDS011;54904;54.350;18.664;2023-02-28T04:14:37;15.07;;;6.33;;
18320;SDS011;54904;54.350;18.664;2023-02-28T04:17:04;15.60;;;7.07;;
18320;SDS011;54904;54.350;18.664;2023-02-28T04:19:31;12.43;;;6.07;;
18320;SDS011;54904;54.350;18.664;2023-02-28T04:21:58;11.47;;;5.80;;
18320;SDS011;54904;54.350;18.664;2023-02-28T04:24:27;11.77;;;5.33;;
18320;SDS011;54904;54.350;18.664;2023-02-28T04:26:55;11.80;;;5.50;;
18320;SDS011;54904;54.350;18.664;2023-02-28T04:29:24;14.70;;;5.80;;
18320;SDS011;54904;54.350;18.664;2023-02-28T04:31:52;14.23;;;6.70;;
18320;SDS011;54904;54.350;18.664;2023-02-28T04:34:20;13.47;;;6.20;;
18320;SDS011;54904;54.350;18.664;2023-02-28T04:36:48;12.53;;;6.43;;
18320;SDS011;54904;54.350;18.664;2023-02-28T04:39:15;11.57;;;5.30;;
18320;SDS011;54904;54.350;18.664;2023-02-28T04:41:45;9.80;;;4.60;;
18320;SDS011;54904;54.350;18.664;2023-02-28T04:44:12;15.63;;;7.33;;
18320;SDS011;54904;54.350;18.664;2023-02-28T04:46:40;17.30;;;7.40;;
18320;SDS011;54904;54.350;18.664;2023-02-28T04:49:07;16.67;;;7.23;;
18320;SDS011;54904;54.350;18.664;2023-02-28T04:51:37;15.13;;;6.90;;
18320;SDS011;54904;54.350;18.664;2023-02-28T04:54:04;15.03;;;6.73;;
18320;SDS011;54904;54.350;18.664;2023-02-28T04:56:31;17.60;;;6.87;;
18320;SDS011;54904;54.350;18.664;2023-02-28T04:59:00;11.77;;;6.17;;
18320;SDS011;54904;54.350;18.664;2023-02-28T05:01:28;9.93;;;5.63;;
18320;SDS011;54904;54.350;18.664;2023-02-28T05:03:58;13.77;;;5.90;;
18320;SDS011;54904;54.350;18.664;2023-02-28T05:06:27;12.63;;;5.90;;
18320;SDS011;54904;54.350;18.664;2023-02-28T05:08:56;10.30;;;6.00;;
18320;SDS011;54904;54.350;18.664;2023-02-28T05:11:24;14.03;;;6.20;;
18320;SDS011;54904;54.350;18.664;2023-02-28T05:13:54;11.33;;;5.63;;
18320;SDS011;54904;54.350;18.664;2023-02-28T05:16:23;13.53;;;5.93;;
18320;SDS011;54904;54.350;18.664;2023-02-28T05:18:50;11.93;;;5.87;;
18320;SDS011;54904;54.350;18.664;2023-02-28T05:21:23;11.90;;;5.90;;
18320;SDS011;54904;54.350;18.664;2023-02-28T05:23:53;14.43;;;6.43;;
18320;SDS011;54904;54.350;18.664;2023-02-28T05:26:21;13.97;;;6.20;;
18320;SDS011;54904;54.350;18.664;2023-02-28T05:28:49;12.73;;;5.67;;
18320;SDS011;54904;54.350;18.664;2023-02-28T05:31:16;9.97;;;4.87;;
18320;SDS011;54904;54.350;18.664;2023-02-28T05:33:44;13.10;;;5.30;;
18320;SDS011;54904;54.350;18.664;2023-02-28T05:36:12;10.77;;;5.23;;
18320;SDS011;54904;54.350;18.664;2023-02-28T05:38:39;13.90;;;6.00;;
18320;SDS011;54904;54.350;18.664;2023-02-28T05:41:06;12.13;;;5.80;;
18320;SDS011;54904;54.350;18.664;2023-02-28T05:43:34;11.90;;;5.83;;
18320;SDS011;54904;54.350;18.664;2023-02-28T05:46:02;11.83;;;5.53;;
18320;SDS011;54904;54.350;18.664;2023-02-28T05:48:30;12.17;;;5.20;;
18320;SDS011;54904;54.350;18.664;2023-02-28T05:50:59;9.97;;;4.57;;
18320;SDS011;54904;54.350;18.664;2023-02-28T05:53:27;9.67;;;5.13;;
18320;SDS011;54904;54.350;18.664;2023-02-28T05:55:55;11.50;;;5.20;;
18320;SDS011;54904;54.350;18.664;2023-02-28T05:58:22;9.40;;;5.40;;
18320;SDS011;54904;54.350;18.664;2023-02-28T06:00:54;8.73;;;5.13;;
18320;SDS011;54904;54.350;18.664;2023-02-28T06:03:21;10.57;;;4.90;;
18320;SDS011;54904;54.350;18.664;2023-02-28T06:05:48;9.47;;;5.27;;
18320;SDS011;54904;54.350;18.664;2023-02-28T06:08:17;10.53;;;4.97;;
18320;SDS011;54904;54.350;18.664;2023-02-28T06:10:44;13.83;;;5.77;;
18320;SDS011;54904;54.350;18.664;2023-02-28T06:13:11;11.13;;;5.03;;
18320;SDS011;54904;54.350;18.664;2023-02-28T06:15:39;12.90;;;4.90;;
18320;SDS011;54904;54.350;18.664;2023-02-28T06:18:07;14.17;;;4.90;;
18320;SDS011;54904;54.350;18.664;2023-02-28T06:20:34;12.57;;;5.70;;
18320;SDS011;54904;54.350;18.664;2023-02-28T06:23:01;11.73;;;5.90;;
18320;SDS011;54904;54.350;18.664;2023-02-28T06:25:30;11.67;;;5.40;;
18320;SDS011;54904;54.350;18.664;2023-02-28T06:27:57;16.33;;;6.47;;
18320;SDS011;54904;54.350;18.664;2023-02-28T06:30:24;12.03;;;5.90;;
18320;SDS011;54904;54.350;18.664;2023-02-28T06:32:53;15.37;;;6.27;;
18320;SDS011;54904;54.350;18.664;2023-02-28T06:35:21;9.03;;;5.20;;
18320;SDS011;54904;54.350;18.664;2023-02-28T06:37:48;9.03;;;4.60;;
18320;SDS011;54904;54.350;18.664;2023-02-28T06:40:16;7.97;;;4.27;;
18320;SDS011;54904;54.350;18.664;2023-02-28T06:42:44;8.67;;;4.47;;
18320;SDS011;54904;54.350;18.664;2023-02-28T06:45:11;8.57;;;4.67;;
18320;SDS011;54904;54.350;18.664;2023-02-28T06:47:39;9.23;;;4.50;;
18320;SDS011;54904;54.350;18.664;2023-02-28T06:50:07;8.00;;;4.07;;
18320;SDS011;54904;54.350;18.664;2023-02-28T06:52:37;10.80;;;4.83;;
18320;SDS011;54904;54.350;18.664;2023-02-28T06:55:06;8.20;;;4.20;;
18320;SDS011;54904;54.350;18.664;2023-02-28T06:57:34;6.73;;;4.10;;
18320;SDS011;54904;54.350;18.664;2023-02-28T07:00:04;12.40;;;4.60;;
18320;SDS011;54904;54.350;18.664;2023-02-28T07:02:34;7.83;;;4.57;;
18320;SDS011;54904;54.350;18.664;2023-02-28T07:05:02;8.97;;;4.37;;
18320;SDS011;54904;54.350;18.664;2023-02-28T07:07:30;7.80;;;4.37;;
18320;SDS011;54904;54.350;18.664;2023-02-28T07:09:57;7.27;;;4.30;;
18320;SDS011;54904;54.350;18.664;2023-02-28T07:12:24;7.27;;;3.97;;
18320;SDS011;54904;54.350;18.664;2023-02-28T07:14:51;7.93;;;4.07;;
18320;SDS011;54904;54.350;18.664;2023-02-28T07:17:21;7.10;;;3.80;;
18320;SDS011;54904;54.350;18.664;2023-02-28T07:19:48;6.13;;;3.60;;
18320;SDS011;54904;54.350;18.664;2023-02-28T07:22:15;6.47;;;3.73;;
18320;SDS011;54904;54.350;18.664;2023-02-28T07:24:42;9.80;;;4.20;;
18320;SDS011;54904;54.350;18.664;2023-02-28T07:27:09;6.60;;;3.80;;
18320;SDS011;54904;54.350;18.664;2023-02-28T07:29:36;6.43;;;3.57;;
18320;SDS011;54904;54.350;18.664;2023-02-28T07:32:04;6.03;;;3.57;;
18320;SDS011;54904;54.350;18.664;2023-02-28T07:34:32;6.37;;;3.93;;
18320;SDS011;54904;54.350;18.664;2023-02-28T07:37:00;4.73;;;3.20;;
18320;SDS011;54904;54.350;18.664;2023-02-28T07:39:29;5.07;;;3.23;;
18320;SDS011;54904;54.350;18.664;2023-02-28T07:41:56;6.73;;;3.40;;
18320;SDS011;54904;54.350;18.664;2023-02-28T07:44:25;6.40;;;3.13;;
18320;SDS011;54904;54.350;18.664;2023-02-28T07:46:52;12.27;;;4.67;;
18320;SDS011;54904;54.350;18.664;2023-02-28T07:49:19;10.27;;;4.57;;
18320;SDS011;54904;54.350;18.664;2023-02-28T07:51:48;10.27;;;4.40;;
18320;SDS011;54904;54.350;18.664;2023-02-28T07:54:15;8.57;;;3.93;;
18320;SDS011;54904;54.350;18.664;2023-02-28T07:56:42;5.90;;;3.67;;
18320;SDS011;54904;54.350;18.664;2023-02-28T07:59:09;9.53;;;4.93;;
18320;SDS011;54904;54.350;18.664;2023-02-28T08:01:37;9.27;;;4.60;;
18320;SDS011;54904;54.350;18.664;2023-02-28T08:04:04;9.07;;;4.73;;
18320;SDS011;54904;54.350;18.664;2023-02-28T08:06:31;12.90;;;6.33;;
18320;SDS011;54904;54.350;18.664;2023-02-28T08:09:00;10.93;;;5.90;;
18320;SDS011;54904;54.350;18.664;2023-02-28T08:11:27;12.40;;;5.30;;
18320;SDS011;54904;54.350;18.664;2023-02-28T08:13:54;17.60;;;7.30;;
18320;SDS011;54904;54.350;18.664;2023-02-28T08:16:22;10.97;;;6.00;;
18320;SDS011;54904;54.350;18.664;2023-02-28T08:18:49;12.93;;;5.77;;
18320;SDS011;54904;54.350;18.664;2023-02-28T08:21:17;13.67;;;6.50;;
18320;SDS011;54904;54.350;18.664;2023-02-28T08:23:46;11.37;;;5.20;;
18320;SDS011;54904;54.350;18.664;2023-02-28T08:26:15;13.27;;;6.33;;
18320;SDS011;54904;54.350;18.664;2023-02-28T08:28:42;15.17;;;5.77;;
18320;SDS011;54904;54.350;18.664;2023-02-28T08:31:10;9.57;;;4.77;;
18320;SDS011;54904;54.350;18.664;2023-02-28T08:33:39;9.27;;;4.80;;
18320;SDS011;54904;54.350;18.664;2023-02-28T08:36:07;10.23;;;4.80;;
18320;SDS011;54904;54.350;18.664;2023-02-28T08:38:35;11.07;;;5.20;;
18320;SDS011;54904;54.350;18.664;2023-02-28T08:41:04;9.23;;;4.67;;
18320;SDS011;54904;54.350;18.664;2023-02-28T08:43:34;7.30;;;3.70;;
18320;SDS011;54904;54.350;18.664;2023-02-28T08:46:02;7.30;;;4.00;;
18320;SDS011;54904;54.350;18.664;2023-02-28T08:48:30;9.37;;;4.23;;
18320;SDS011;54904;54.350;18.664;2023-02-28T08:50:59;6.07;;;3.93;;
18320;SDS011;54904;54.350;18.664;2023-02-28T08:53:28;8.73;;;4.10;;
18320;SDS011;54904;54.350;18.664;2023-02-28T08:55:56;6.20;;;3.97;;
18320;SDS011;54904;54.350;18.664;2023-02-28T08:58:24;8.93;;;4.10;;
18320;SDS011;54904;54.350;18.664;2023-02-28T09:00:53;6.87;;;4.30;;
18320;SDS011;54904;54.350;18.664;2023-02-28T09:03:20;7.93;;;4.07;;
18320;SDS011;54904;54.350;18.664;2023-02-28T09:05:51;8.30;;;3.77;;
18320;SDS011;54904;54.350;18.664;2023-02-28T09:08:22;9.67;;;4.80;;
18320;SDS011;54904;54.350;18.664;2023-02-28T09:10:50;7.23;;;4.00;;
18320;SDS011;54904;54.350;18.664;2023-02-28T09:13:19;8.70;;;4.00;;
18320;SDS011;54904;54.350;18.664;2023-02-28T09:15:47;4.53;;;3.50;;
18320;SDS011;54904;54.350;18.664;2023-02-28T09:18:15;13.03;;;4.70;;
18320;SDS011;54904;54.350;18.664;2023-02-28T09:20:43;9.70;;;3.80;;
18320;SDS011;54904;54.350;18.664;2023-02-28T09:23:11;9.07;;;4.03;;
18320;SDS011;54904;54.350;18.664;2023-02-28T09:25:44;8.13;;;4.33;;
18320;SDS011;54904;54.350;18.664;2023-02-28T09:28:12;6.63;;;4.00;;
18320;SDS011;54904;54.350;18.664;2023-02-28T09:30:40;8.00;;;3.83;;
18320;SDS011;54904;54.350;18.664;2023-02-28T09:33:08;10.20;;;4.80;;
18320;SDS011;54904;54.350;18.664;2023-02-28T09:35:37;8.93;;;4.33;;
18320;SDS011;54904;54.350;18.664;2023-02-28T09:38:04;10.90;;;4.93;;
18320;SDS011;54904;54.350;18.664;2023-02-28T09:40:34;8.83;;;4.30;;
18320;SDS011;54904;54.350;18.664;2023-02-28T09:43:03;9.43;;;4.70;;
18320;SDS011;54904;54.350;18.664;2023-02-28T09:45:33;9.40;;;4.47;;
18320;SDS011;54904;54.350;18.664;2023-02-28T09:48:06;12.30;;;5.47;;
18320;SDS011;54904;54.350;18.664;2023-02-28T09:50:42;8.50;;;4.53;;
18320;SDS011;54904;54.350;18.664;2023-02-28T09:53:15;9.10;;;4.10;;
18320;SDS011;54904;54.350;18.664;2023-02-28T09:55:48;9.43;;;4.90;;
18320;SDS011;54904;54.350;18.664;2023-02-28T09:58:19;10.20;;;4.87;;
18320;SDS011;54904;54.350;18.664;2023-02-28T10:00:56;8.07;;;4.73;;
18320;SDS011;54904;54.350;18.664;2023-02-28T10:03:30;10.27;;;4.97;;
18320;SDS011;54904;54.350;18.664;2023-02-28T10:06:04;12.17;;;5.60;;
18320;SDS011;54904;54.350;18.664;2023-02-28T10:08:40;10.57;;;5.23;;
18320;SDS011;54904;54.350;18.664;2023-02-28T10:11:12;11.77;;;5.17;;
18320;SDS011;54904;54.350;18.664;2023-02-28T10:13:46;9.47;;;5.20;;
18320;SDS011;54904;54.350;18.664;2023-02-28T10:16:21;5.80;;;3.60;;
18320;SDS011;54904;54.350;18.664;2023-02-28T10:18:54;6.30;;;4.00;;
18320;SDS011;54904;54.350;18.664;2023-02-28T10:21:28;6.97;;;3.70;;
18320;SDS011;54904;54.350;18.664;2023-02-28T10:24:03;7.47;;;3.93;;
18320;SDS011;54904;54.350;18.664;2023-02-28T10:26:37;4.93;;;3.30;;
18320;SDS011;54904;54.350;18.664;2023-02-28T10:29:04;4.27;;;3.03;;
18320;SDS011;54904;54.350;18.664;2023-02-28T10:31:34;4.97;;;3.13;;
18320;SDS011;54904;54.350;18.664;2023-02-28T10:34:01;4.67;;;3.20;;
18320;SDS011;54904;54.350;18.664;2023-02-28T10:36:30;4.17;;;2.37;;
18320;SDS011;54904;54.350;18.664;2023-02-28T10:38:58;5.60;;;3.60;;
18320;SDS011;54904;54.350;18.664;2023-02-28T10:41:29;3.40;;;2.93;;
18320;SDS011;54904;54.350;18.664;2023-02-28T10:44:12;4.43;;;2.93;;
18320;SDS011;54904;54.350;18.664;2023-02-28T10:56:12;4.85;;;3.22;;
18320;SDS011;54904;54.350;18.664;2023-02-28T11:23:36;5.30;;;3.40;;
18320;SDS011;54904;54.350;18.664;2023-02-28T11:26:07;7.65;;;4.05;;
18320;SDS011;54904;54.350;18.664;2023-02-28T11:28:36;7.72;;;4.07;;
18320;SDS011;54904;54.350;18.664;2023-02-28T11:31:15;6.20;;;4.10;;
18320;SDS011;54904;54.350;18.664;2023-02-28T11:33:46;8.13;;;4.50;;
18320;SDS011;54904;54.350;18.664;2023-02-28T11:36:17;5.72;;;3.63;;
18320;SDS011;54904;54.350;18.664;2023-02-28T11:38:48;4.72;;;3.30;;
18320;SDS011;54904;54.350;18.664;2023-02-28T11:41:22;7.67;;;3.70;;
18320;SDS011;54904;54.350;18.664;2023-02-28T11:44:10;3.50;;;2.67;;
18320;SDS011;54904;54.350;18.664;2023-02-28T11:46:50;4.97;;;2.60;;
18320;SDS011;54904;54.350;18.664;2023-02-28T11:49:24;4.60;;;3.03;;
18320;SDS011;54904;54.350;18.664;2023-02-28T11:52:01;8.13;;;3.20;;
18320;SDS011;54904;54.350;18.664;2023-02-28T11:54:44;3.07;;;2.73;;
18320;SDS011;54904;54.350;18.664;2023-02-28T11:57:33;3.90;;;2.30;;
18320;SDS011;54904;54.350;18.664;2023-02-28T12:00:19;2.43;;;2.13;;
18320;SDS011;54904;54.350;18.664;2023-02-28T12:03:02;2.43;;;2.23;;
18320;SDS011;54904;54.350;18.664;2023-02-28T12:05:38;2.20;;;2.00;;
18320;SDS011;54904;54.350;18.664;2023-02-28T12:08:16;2.50;;;2.30;;
18320;SDS011;54904;54.350;18.664;2023-02-28T12:10:56;2.53;;;2.00;;
18320;SDS011;54904;54.350;18.664;2023-02-28T12:13:33;2.17;;;1.87;;
18320;SDS011;54904;54.350;18.664;2023-02-28T12:19:09;2.77;;;2.00;;
18320;SDS011;54904;54.350;18.664;2023-02-28T12:21:55;2.67;;;1.90;;
18320;SDS011;54904;54.350;18.664;2023-02-28T12:24:47;3.03;;;2.00;;
18320;SDS011;54904;54.350;18.664;2023-02-28T12:27:37;4.20;;;2.50;;
18320;SDS011;54904;54.350;18.664;2023-02-28T12:30:13;4.90;;;1.93;;
18320;SDS011;54904;54.350;18.664;2023-02-28T12:32:46;2.20;;;1.90;;
18320;SDS011;54904;54.350;18.664;2023-02-28T12:35:16;3.17;;;2.20;;
18320;SDS011;54904;54.350;18.664;2023-02-28T12:37:49;1.70;;;1.60;;
18320;SDS011;54904;54.350;18.664;2023-02-28T12:40:23;3.60;;;2.50;;
18320;SDS011;54904;54.350;18.664;2023-02-28T12:42:56;4.07;;;2.33;;
18320;SDS011;54904;54.350;18.664;2023-02-28T12:45:31;3.63;;;2.43;;
18320;SDS011;54904;54.350;18.664;2023-02-28T12:48:08;5.77;;;2.70;;
18320;SDS011;54904;54.350;18.664;2023-02-28T12:50:40;2.53;;;2.00;;
18320;SDS011;54904;54.350;18.664;2023-02-28T12:53:09;3.30;;;2.03;;
18320;SDS011;54904;54.350;18.664;2023-02-28T12:55:41;2.03;;;1.80;;
18320;SDS011;54904;54.350;18.664;2023-02-28T12:58:17;2.17;;;1.90;;
18320;SDS011;54904;54.350;18.664;2023-02-28T13:00:59;2.90;;;2.10;;
18320;SDS011;54904;54.350;18.664;2023-02-28T13:03:44;2.63;;;2.20;;
18320;SDS011;54904;54.350;18.664;2023-02-28T13:06:34;3.83;;;2.50;;
18320;SDS011;54904;54.350;18.664;2023-02-28T13:09:15;2.45;;;1.85;;
18320;SDS011;54904;54.350;18.664;2023-02-28T13:11:43;5.22;;;2.42;;
18320;SDS011;54904;54.350;18.664;2023-02-28T13:14:21;2.65;;;2.28;;
18320;SDS011;54904;54.350;18.664;2023-02-28T13:16:54;3.15;;;2.10;;
18320;SDS011;54904;54.350;18.664;2023-02-28T13:19:37;2.22;;;2.00;;
18320;SDS011;54904;54.350;18.664;2023-02-28T13:22:09;2.35;;;2.15;;
18320;SDS011;54904;54.350;18.664;2023-02-28T13:24:47;1.90;;;1.80;;
18320;SDS011;54904;54.350;18.664;2023-02-28T13:33:24;2.00;;;1.67;;
18320;SDS011;54904;54.350;18.664;2023-02-28T13:36:03;2.08;;;1.88;;
18320;SDS011;54904;54.350;18.664;2023-02-28T13:38:36;3.70;;;2.22;;
18320;SDS011;54904;54.350;18.664;2023-02-28T13:44:08;2.20;;;2.00;;
18320;SDS011;54904;54.350;18.664;2023-02-28T13:46:38;3.88;;;1.80;;
18320;SDS011;54904;54.350;18.664;2023-02-28T13:49:43;2.70;;;1.85;;
18320;SDS011;54904;54.350;18.664;2023-02-28T13:52:12;2.97;;;1.50;;
18320;SDS011;54904;54.350;18.664;2023-02-28T13:54:50;3.03;;;1.50;;
18320;SDS011;54904;54.350;18.664;2023-02-28T13:57:28;2.07;;;1.83;;
18320;SDS011;54904;54.350;18.664;2023-02-28T14:00:09;2.40;;;1.80;;
18320;SDS011;54904;54.350;18.664;2023-02-28T14:03:00;3.43;;;2.10;;
18320;SDS011;54904;54.350;18.664;2023-02-28T14:05:40;2.83;;;2.00;;
18320;SDS011;54904;54.350;18.664;2023-02-28T14:08:11;3.10;;;2.10;;
18320;SDS011;54904;54.350;18.664;2023-02-28T14:10:43;2.97;;;1.70;;
18320;SDS011;54904;54.350;18.664;2023-02-28T14:13:13;3.90;;;1.90;;
18320;SDS011;54904;54.350;18.664;2023-02-28T14:15:59;4.43;;;1.90;;
18320;SDS011;54904;54.350;18.664;2023-02-28T14:18:29;3.77;;;1.97;;
18320;SDS011;54904;54.350;18.664;2023-02-28T14:21:08;3.07;;;2.17;;
18320;SDS011;54904;54.350;18.664;2023-02-28T14:32:41;3.13;;;1.90;;
18320;SDS011;54904;54.350;18.664;2023-02-28T14:35:17;3.33;;;2.20;;
18320;SDS011;54904;54.350;18.664;2023-02-28T14:37:55;3.23;;;1.93;;
18320;SDS011;54904;54.350;18.664;2023-02-28T14:40:25;3.80;;;1.90;;
18320;SDS011;54904;54.350;18.664;2023-02-28T14:42:57;2.60;;;2.00;;
18320;SDS011;54904;54.350;18.664;2023-02-28T14:45:26;2.57;;;2.20;;
18320;SDS011;54904;54.350;18.664;2023-02-28T14:47:56;2.47;;;1.80;;
18320;SDS011;54904;54.350;18.664;2023-02-28T14:50:33;4.77;;;2.07;;
18320;SDS011;54904;54.350;18.664;2023-02-28T14:53:03;3.73;;;2.53;;
18320;SDS011;54904;54.350;18.664;2023-02-28T14:55:33;3.60;;;2.60;;
18320;SDS011;54904;54.350;18.664;2023-02-28T14:58:03;3.27;;;2.37;;
18320;SDS011;54904;54.350;18.664;2023-02-28T15:00:33;3.10;;;2.37;;
18320;SDS011;54904;54.350;18.664;2023-02-28T15:03:13;2.83;;;2.40;;
18320;SDS011;54904;54.350;18.664;2023-02-28T15:05:50;4.70;;;2.43;;
18320;SDS011;54904;54.350;18.664;2023-02-28T15:08:21;3.87;;;2.33;;
18320;SDS011;54904;54.350;18.664;2023-02-28T15:10:51;5.17;;;2.53;;
18320;SDS011;54904;54.350;18.664;2023-02-28T15:13:21;5.30;;;3.00;;
18320;SDS011;54904;54.350;18.664;2023-02-28T15:15:50;4.13;;;2.77;;
18320;SDS011;54904;54.350;18.664;2023-02-28T15:18:23;4.60;;;3.13;;
18320;SDS011;54904;54.350;18.664;2023-02-28T15:21:06;3.83;;;2.53;;
18320;SDS011;54904;54.350;18.664;2023-02-28T15:23:39;4.30;;;2.40;;
18320;SDS011;54904;54.350;18.664;2023-02-28T15:26:10;3.33;;;2.40;;
18320;SDS011;54904;54.350;18.664;2023-02-28T15:28:43;2.90;;;2.20;;
18320;SDS011;54904;54.350;18.664;2023-02-28T15:31:18;3.77;;;2.47;;
18320;SDS011;54904;54.350;18.664;2023-02-28T15:33:52;2.70;;;2.03;;
18320;SDS011;54904;54.350;18.664;2023-02-28T15:36:20;4.87;;;2.77;;
18320;SDS011;54904;54.350;18.664;2023-02-28T15:38:54;4.17;;;2.73;;
18320;SDS011;54904;54.350;18.664;2023-02-28T15:41:23;3.57;;;2.60;;
18320;SDS011;54904;54.350;18.664;2023-02-28T15:44:14;4.67;;;2.90;;
18320;SDS011;54904;54.350;18.664;2023-02-28T15:46:56;2.83;;;2.37;;
18320;SDS011;54904;54.350;18.664;2023-02-28T15:49:26;4.07;;;2.67;;
18320;SDS011;54904;54.350;18.664;2023-02-28T15:51:55;3.50;;;2.10;;